Time;durP1;ratioP1;P1;durP2;ratioP2;P2;SDS_P1;SDS_P2;PMS_P1;PMS_P2;Temp;Humidity;BMP_temperature;BMP_pressure;BME280_temperature;BME280_humidity;BME280_pressure;Samples;Min_cycle;Max_cycle;Signal;HPM_P1;HPM_P2
2021/05/27 00:00:51;;;;;;;3.25;1.00;;;;;;;;;;5008846;28;20057;-59
2021/05/27 00:03:19;;;;;;;2.17;1.13;;;;;;;;;;5008296;28;20519;-59
2021/05/27 00:05:47;;;;;;;1.15;0.98;;;;;;;;;;5008978;28;20050;-59
2021/05/27 00:08:15;;;;;;;1.30;1.00;;;;;;;;;;5009438;28;20060;-59
2021/05/27 00:10:43;;;;;;;1.60;1.00;;;;;;;;;;5008415;28;20042;-59
2021/05/27 00:13:11;;;;;;;1.67;1.20;;;;;;;;;;5009066;28;20064;-60
2021/05/27 00:15:40;;;;;;;2.85;1.00;;;;;;;;;;5008928;28;20049;-60
2021/05/27 00:18:08;;;;;;;1.70;1.08;;;;;;;;;;5008274;28;20136;-59
2021/05/27 00:20:37;;;;;;;2.03;1.02;;;;;;;;;;5008826;28;20064;-59
2021/05/27 00:23:06;;;;;;;1.00;0.90;;;;;;;;;;5008718;28;20137;-59
2021/05/27 00:25:33;;;;;;;1.52;1.02;;;;;;;;;;5009151;28;20133;-59
2021/05/27 00:28:01;;;;;;;1.80;1.05;;;;;;;;;;5008014;28;20046;-60
2021/05/27 00:30:29;;;;;;;2.30;0.90;;;;;;;;;;5008861;28;20060;-60
2021/05/27 00:32:57;;;;;;;2.72;1.17;;;;;;;;;;5008857;28;20049;-60
2021/05/27 00:35:24;;;;;;;1.50;0.90;;;;;;;;;;5009748;28;20078;-60
2021/05/27 00:37:52;;;;;;;4.63;1.10;;;;;;;;;;5014327;28;20145;-59
2021/05/27 00:40:21;;;;;;;1.20;0.80;;;;;;;;;;5011511;28;20511;-60
2021/05/27 00:42:49;;;;;;;2.25;1.02;;;;;;;;;;5010462;28;20057;-59
2021/05/27 00:45:18;;;;;;;3.85;1.20;;;;;;;;;;5008560;28;20613;-59
2021/05/27 00:47:47;;;;;;;3.10;1.30;;;;;;;;;;5008415;28;20054;-59
2021/05/27 00:50:21;;;;;;;1.98;1.10;;;;;;;;;;5008755;28;20141;-59
2021/05/27 00:52:49;;;;;;;1.52;1.00;;;;;;;;;;5008442;28;20042;-59
2021/05/27 00:55:18;;;;;;;3.72;1.10;;;;;;;;;;5004399;28;20053;-59
2021/05/27 00:57:47;;;;;;;1.65;1.00;;;;;;;;;;5007843;28;20141;-59
2021/05/27 01:00:16;;;;;;;1.30;0.98;;;;;;;;;;5015231;28;20128;-59
2021/05/27 01:02:44;;;;;;;1.45;1.00;;;;;;;;;;5016465;28;20073;-59
2021/05/27 01:05:13;;;;;;;1.35;1.00;;;;;;;;;;5009103;28;20128;-59
2021/05/27 01:07:41;;;;;;;2.55;0.80;;;;;;;;;;5007622;28;20056;-59
2021/05/27 01:10:10;;;;;;;1.60;0.90;;;;;;;;;;5007999;28;20054;-59
2021/05/27 01:12:38;;;;;;;2.42;1.05;;;;;;;;;;5007491;28;20081;-59
2021/05/27 01:15:28;;;;;;;2.05;0.90;;;;;;;;;;5007468;28;20050;-59
2021/05/27 01:17:56;;;;;;;2.45;1.15;;;;;;;;;;5007353;28;20535;-59
2021/05/27 01:20:23;;;;;;;1.30;0.80;;;;;;;;;;5008178;28;20084;-59
2021/05/27 01:22:52;;;;;;;2.05;0.82;;;;;;;;;;5009741;28;20503;-60
2021/05/27 01:25:20;;;;;;;2.13;0.82;;;;;;;;;;5008360;28;20510;-59
2021/05/27 01:27:48;;;;;;;2.33;0.90;;;;;;;;;;5005576;28;20057;-59
2021/05/27 01:30:16;;;;;;;1.13;0.80;;;;;;;;;;5008085;28;20063;-59
2021/05/27 01:32:44;;;;;;;1.38;0.70;;;;;;;;;;5007551;28;20121;-59
2021/05/27 01:35:14;;;;;;;1.65;0.90;;;;;;;;;;5007969;28;20137;-59
2021/05/27 01:37:42;;;;;;;1.27;0.80;;;;;;;;;;5006976;28;20056;-59
2021/05/27 01:40:12;;;;;;;1.35;0.90;;;;;;;;;;5007983;28;20046;-59
2021/05/27 01:42:39;;;;;;;1.80;0.80;;;;;;;;;;5007453;28;20050;-59
2021/05/27 01:45:08;;;;;;;1.55;0.90;;;;;;;;;;5008031;28;20136;-59
2021/05/27 01:47:35;;;;;;;0.73;0.60;;;;;;;;;;5007213;28;20103;-59
2021/05/27 01:50:04;;;;;;;1.20;0.90;;;;;;;;;;5007723;28;20049;-59
2021/05/27 01:52:32;;;;;;;1.58;0.85;;;;;;;;;;5007691;28;20413;-59
2021/05/27 01:54:59;;;;;;;1.95;0.90;;;;;;;;;;5008015;28;20053;-59
2021/05/27 01:57:28;;;;;;;2.05;0.88;;;;;;;;;;5007068;28;20065;-59
2021/05/27 01:59:57;;;;;;;1.10;0.85;;;;;;;;;;5014579;28;20517;-59
2021/05/27 02:02:25;;;;;;;1.90;0.70;;;;;;;;;;5010657;28;20503;-59
2021/05/27 02:04:52;;;;;;;2.47;0.90;;;;;;;;;;5043308;28;20491;-59
2021/05/27 02:07:20;;;;;;;1.55;0.82;;;;;;;;;;5023960;28;20103;-59
2021/05/27 02:09:48;;;;;;;1.30;0.90;;;;;;;;;;5046812;28;20438;-59
2021/05/27 02:12:16;;;;;;;2.60;0.88;;;;;;;;;;5022600;28;20050;-59
2021/05/27 02:14:44;;;;;;;1.88;1.10;;;;;;;;;;5007721;28;20095;-59
2021/05/27 02:17:12;;;;;;;3.28;0.90;;;;;;;;;;5033678;28;20416;-59
2021/05/27 02:19:40;;;;;;;2.67;1.10;;;;;;;;;;5007750;28;20045;-59
2021/05/27 02:22:08;;;;;;;3.08;1.15;;;;;;;;;;5006968;28;20141;-59
2021/05/27 02:24:35;;;;;;;3.45;1.30;;;;;;;;;;5007276;28;20050;-59
2021/05/27 02:27:03;;;;;;;2.15;1.25;;;;;;;;;;5009012;28;20058;-59
2021/05/27 02:29:31;;;;;;;2.75;1.30;;;;;;;;;;5010461;28;20544;-59
2021/05/27 02:32:00;;;;;;;2.50;1.00;;;;;;;;;;5010081;28;20463;-59
2021/05/27 02:34:27;;;;;;;3.05;1.08;;;;;;;;;;5010951;28;20141;-59
2021/05/27 02:36:55;;;;;;;2.22;1.20;;;;;;;;;;5009951;28;20046;-59
2021/05/27 02:39:23;;;;;;;2.10;1.10;;;;;;;;;;5010507;28;20133;-59
2021/05/27 02:41:51;;;;;;;1.83;1.00;;;;;;;;;;5010492;28;20042;-59
2021/05/27 02:44:19;;;;;;;3.60;1.20;;;;;;;;;;5010502;28;20512;-59
2021/05/27 02:46:46;;;;;;;2.03;1.10;;;;;;;;;;5009785;28;20078;-59
2021/05/27 02:49:15;;;;;;;1.30;0.80;;;;;;;;;;5010421;28;20147;-59
2021/05/27 02:51:43;;;;;;;1.48;0.90;;;;;;;;;;5010383;28;20164;-59
2021/05/27 02:54:11;;;;;;;1.60;1.00;;;;;;;;;;5010606;28;20676;-59
2021/05/27 02:56:38;;;;;;;2.30;1.13;;;;;;;;;;5010185;28;20167;-59
2021/05/27 02:59:07;;;;;;;1.83;1.10;;;;;;;;;;5010096;28;20052;-59
2021/05/27 03:01:35;;;;;;;3.53;0.80;;;;;;;;;;5010485;28;20076;-59
2021/05/27 03:04:03;;;;;;;2.17;1.00;;;;;;;;;;5008140;28;20465;-59
2021/05/27 03:06:31;;;;;;;1.23;0.98;;;;;;;;;;5009730;28;20042;-59
2021/05/27 03:08:59;;;;;;;1.17;0.90;;;;;;;;;;5009780;28;20485;-59
2021/05/27 03:11:27;;;;;;;2.33;1.17;;;;;;;;;;5010943;28;20050;-59
2021/05/27 03:13:55;;;;;;;1.58;1.00;;;;;;;;;;5009278;28;20136;-59
2021/05/27 03:16:23;;;;;;;1.95;0.98;;;;;;;;;;5017651;28;20054;-59
2021/05/27 03:18:51;;;;;;;1.30;1.00;;;;;;;;;;5022948;28;20050;-59
2021/05/27 03:21:19;;;;;;;1.67;1.15;;;;;;;;;;5010698;28;20046;-60
2021/05/27 03:23:47;;;;;;;3.53;1.08;;;;;;;;;;5009500;28;20081;-59
2021/05/27 03:26:16;;;;;;;1.75;1.10;;;;;;;;;;5009655;28;20053;-59
2021/05/27 03:28:44;;;;;;;2.50;0.80;;;;;;;;;;5008604;28;20889;-59
2021/05/27 03:31:12;;;;;;;1.30;0.73;;;;;;;;;;5009983;28;20133;-59
2021/05/27 03:33:40;;;;;;;1.88;1.00;;;;;;;;;;5009980;28;20050;-59
2021/05/27 03:36:08;;;;;;;2.13;0.90;;;;;;;;;;5009158;28;20137;-59
2021/05/27 03:38:35;;;;;;;2.22;0.80;;;;;;;;;;5008721;28;20149;-59
2021/05/27 03:41:04;;;;;;;2.70;1.00;;;;;;;;;;5009908;28;20049;-59
2021/05/27 03:43:32;;;;;;;1.48;1.15;;;;;;;;;;5010002;28;20477;-59
2021/05/27 03:46:00;;;;;;;1.42;0.80;;;;;;;;;;5016386;28;20133;-59
2021/05/27 03:48:28;;;;;;;3.20;1.00;;;;;;;;;;5008977;28;20058;-59
2021/05/27 03:50:56;;;;;;;1.45;0.90;;;;;;;;;;5011576;28;20046;-59
2021/05/27 03:53:23;;;;;;;1.80;1.20;;;;;;;;;;5009216;28;20121;-59
2021/05/27 03:55:51;;;;;;;3.13;1.33;;;;;;;;;;5042319;28;20046;-59
2021/05/27 04:01:06;;;;;;;1.77;1.17;;;;;;;;;;5008644;28;20129;-59
2021/05/27 04:09:03;;;;;;;2.65;1.02;;;;;;;;;;5009601;28;20136;-59
2021/05/27 04:11:31;;;;;;;1.83;1.00;;;;;;;;;;5009745;28;20136;-60
2021/05/27 04:14:00;;;;;;;2.55;1.00;;;;;;;;;;5008571;28;20107;-60
2021/05/27 04:16:27;;;;;;;1.80;1.02;;;;;;;;;;5008475;28;20507;-60
2021/05/27 04:18:55;;;;;;;1.67;1.00;;;;;;;;;;5008722;28;20096;-60
2021/05/27 04:21:23;;;;;;;3.83;1.30;;;;;;;;;;5031633;28;20052;-60
2021/05/27 04:23:51;;;;;;;1.90;0.95;;;;;;;;;;5010297;28;20046;-60
2021/05/27 04:26:19;;;;;;;1.05;0.95;;;;;;;;;;5008576;28;20128;-60
2021/05/27 04:28:47;;;;;;;1.45;1.08;;;;;;;;;;5006174;28;20046;-60
2021/05/27 04:31:17;;;;;;;2.03;1.10;;;;;;;;;;5011228;28;20064;-60
2021/05/27 04:33:52;;;;;;;4.07;1.30;;;;;;;;;;5008950;28;20054;-60
2021/05/27 04:36:20;;;;;;;1.63;1.20;;;;;;;;;;5008376;28;20417;-60
2021/05/27 04:38:49;;;;;;;3.78;1.50;;;;;;;;;;5009040;28;20136;-60
2021/05/27 04:41:18;;;;;;;3.58;1.42;;;;;;;;;;5009198;28;20124;-60
2021/05/27 04:43:47;;;;;;;2.05;1.10;;;;;;;;;;5009131;28;20129;-60
2021/05/27 04:46:15;;;;;;;2.13;1.10;;;;;;;;;;5008556;28;20085;-60
2021/05/27 04:48:43;;;;;;;3.42;1.20;;;;;;;;;;5008845;28;20053;-60
2021/05/27 04:51:11;;;;;;;4.97;1.17;;;;;;;;;;5011615;28;20138;-60
2021/05/27 04:53:39;;;;;;;3.45;1.40;;;;;;;;;;5009110;28;20049;-60
2021/05/27 04:56:07;;;;;;;3.42;1.30;;;;;;;;;;5008339;28;20489;-60
2021/05/27 04:58:35;;;;;;;1.98;1.10;;;;;;;;;;5013583;28;20128;-60
2021/05/27 05:01:02;;;;;;;4.57;1.15;;;;;;;;;;5009478;28;20053;-60
2021/05/27 05:03:30;;;;;;;4.05;1.38;;;;;;;;;;5008389;28;20149;-60
2021/05/27 05:06:00;;;;;;;2.35;1.10;;;;;;;;;;5007432;28;20054;-60
2021/05/27 05:08:28;;;;;;;3.70;1.17;;;;;;;;;;5006263;28;20038;-60
2021/05/27 05:10:56;;;;;;;2.20;1.20;;;;;;;;;;5020718;28;20136;-60
2021/05/27 05:13:24;;;;;;;5.25;1.00;;;;;;;;;;5005929;28;20054;-61
2021/05/27 05:15:52;;;;;;;3.78;1.10;;;;;;;;;;5005248;28;20048;-60
2021/05/27 05:18:21;;;;;;;1.98;1.30;;;;;;;;;;5004970;28;20111;-60
2021/05/27 05:20:49;;;;;;;1.73;1.13;;;;;;;;;;5005247;28;20060;-60
2021/05/27 05:23:18;;;;;;;3.05;1.23;;;;;;;;;;5005238;28;20169;-60
2021/05/27 05:25:46;;;;;;;1.63;1.10;;;;;;;;;;5004886;28;20127;-60
2021/05/27 05:28:15;;;;;;;1.88;1.10;;;;;;;;;;5001047;28;20050;-60
2021/05/27 05:30:44;;;;;;;4.70;1.10;;;;;;;;;;5005952;28;20046;-60
2021/05/27 05:33:12;;;;;;;1.50;1.02;;;;;;;;;;5002837;28;20181;-60
2021/05/27 05:35:40;;;;;;;1.52;0.80;;;;;;;;;;5002128;28;20050;-60
2021/05/27 05:38:07;;;;;;;3.13;1.15;;;;;;;;;;5005254;28;20375;-60
2021/05/27 05:40:36;;;;;;;2.05;1.17;;;;;;;;;;5004168;28;20129;-60
2021/05/27 05:43:04;;;;;;;2.33;1.33;;;;;;;;;;5002180;28;20136;-60
2021/05/27 05:45:32;;;;;;;1.38;1.10;;;;;;;;;;5003847;28;20042;-60
2021/05/27 05:48:01;;;;;;;4.25;1.17;;;;;;;;;;5004899;28;20042;-60
2021/05/27 05:50:46;;;;;;;2.63;1.10;;;;;;;;;;5003754;28;20065;-60
2021/05/27 05:53:15;;;;;;;1.48;0.93;;;;;;;;;;5003920;28;20049;-60
2021/05/27 05:55:44;;;;;;;3.88;1.10;;;;;;;;;;5005565;28;20056;-60
2021/05/27 05:58:12;;;;;;;2.85;1.17;;;;;;;;;;5019872;28;20052;-60
2021/05/27 06:00:40;;;;;;;4.57;1.38;;;;;;;;;;5009300;28;20046;-60
2021/05/27 06:03:08;;;;;;;1.60;1.30;;;;;;;;;;5012603;28;20066;-60
2021/05/27 06:05:36;;;;;;;1.67;1.05;;;;;;;;;;5012568;28;20128;-60
2021/05/27 06:08:06;;;;;;;3.38;1.20;;;;;;;;;;5013525;28;20133;-60
2021/05/27 06:10:35;;;;;;;4.13;1.45;;;;;;;;;;5014199;28;20057;-60
2021/05/27 06:13:04;;;;;;;4.95;1.10;;;;;;;;;;5014628;28;20132;-60
2021/05/27 06:15:32;;;;;;;1.35;1.10;;;;;;;;;;5014012;28;20129;-60
2021/05/27 06:18:00;;;;;;;3.70;1.10;;;;;;;;;;5006467;28;20753;-60
2021/05/27 06:20:29;;;;;;;4.72;1.40;;;;;;;;;;5014123;28;20060;-60
2021/05/27 06:22:57;;;;;;;2.72;1.42;;;;;;;;;;5009076;28;20513;-60
2021/05/27 06:25:25;;;;;;;2.92;1.50;;;;;;;;;;5013779;28;20042;-60
2021/05/27 06:27:53;;;;;;;6.78;1.45;;;;;;;;;;5013291;28;20484;-60
2021/05/27 06:30:23;;;;;;;2.05;1.02;;;;;;;;;;5014016;28;20052;-60
2021/05/27 06:32:51;;;;;;;4.35;1.20;;;;;;;;;;5018153;28;20045;-60
2021/05/27 06:35:20;;;;;;;3.28;1.30;;;;;;;;;;5016910;28;20058;-60
2021/05/27 06:37:48;;;;;;;1.58;1.27;;;;;;;;;;5014975;28;20041;-60
2021/05/27 06:40:17;;;;;;;1.85;1.05;;;;;;;;;;5013877;28;20141;-60
2021/05/27 06:42:45;;;;;;;1.95;1.05;;;;;;;;;;5013638;28;20103;-60
2021/05/27 06:45:14;;;;;;;3.58;1.00;;;;;;;;;;5014155;28;20465;-60
2021/05/27 06:47:42;;;;;;;3.38;0.93;;;;;;;;;;5012830;28;20053;-60
2021/05/27 06:50:14;;;;;;;1.88;1.33;;;;;;;;;;5013591;28;20065;-60
2021/05/27 06:52:42;;;;;;;2.80;1.40;;;;;;;;;;5013854;28;20117;-60
2021/05/27 06:55:11;;;;;;;4.43;1.20;;;;;;;;;;5013586;28;20053;-60
2021/05/27 06:57:39;;;;;;;2.95;1.25;;;;;;;;;;5019633;28;20045;-60
2021/05/27 07:00:10;;;;;;;1.40;0.80;;;;;;;;;;5042835;28;20042;-60
2021/05/27 07:02:38;;;;;;;3.95;1.20;;;;;;;;;;5013196;28;20083;-60
2021/05/27 07:05:08;;;;;;;3.35;1.27;;;;;;;;;;5014219;28;20070;-60
2021/05/27 07:07:36;;;;;;;2.65;1.42;;;;;;;;;;5013375;28;20049;-60
2021/05/27 07:10:05;;;;;;;1.77;1.02;;;;;;;;;;5013083;28;20049;-60
2021/05/27 07:12:33;;;;;;;6.15;1.40;;;;;;;;;;5011498;28;20045;-60
2021/05/27 07:15:01;;;;;;;2.65;1.23;;;;;;;;;;5010266;28;20060;-60
2021/05/27 07:17:29;;;;;;;2.85;1.25;;;;;;;;;;4990516;28;20383;-60
2021/05/27 07:19:58;;;;;;;1.40;1.20;;;;;;;;;;5028241;28;20056;-60
2021/05/27 07:22:27;;;;;;;3.30;1.05;;;;;;;;;;5029979;28;20045;-60
2021/05/27 07:24:55;;;;;;;2.22;1.17;;;;;;;;;;5029959;28;20553;-60
2021/05/27 07:27:23;;;;;;;6.53;1.20;;;;;;;;;;5015069;28;20092;-60
2021/05/27 07:29:52;;;;;;;1.98;1.15;;;;;;;;;;5001715;28;20050;-60
2021/05/27 07:32:21;;;;;;;2.28;1.77;;;;;;;;;;5019592;28;20053;-60
2021/05/27 07:34:49;;;;;;;2.22;1.10;;;;;;;;;;5051491;28;20044;-60
2021/05/27 07:37:18;;;;;;;5.03;1.20;;;;;;;;;;5056465;28;20052;-59
2021/05/27 07:39:47;;;;;;;4.00;1.27;;;;;;;;;;5083141;28;20048;-60
2021/05/27 07:42:16;;;;;;;2.35;1.13;;;;;;;;;;5062252;28;20050;-60
2021/05/27 07:44:44;;;;;;;1.70;1.23;;;;;;;;;;5012706;28;20065;-60
2021/05/27 07:47:15;;;;;;;2.10;0.90;;;;;;;;;;5009062;28;20046;-60
2021/05/27 07:49:44;;;;;;;2.70;1.50;;;;;;;;;;5011483;28;20053;-60
2021/05/27 07:52:12;;;;;;;2.08;1.27;;;;;;;;;;5029359;28;20049;-60
2021/05/27 07:54:43;;;;;;;3.00;1.33;;;;;;;;;;5020517;28;20443;-60
2021/05/27 07:57:12;;;;;;;3.72;1.88;;;;;;;;;;5029045;28;20470;-60
2021/05/27 07:59:39;;;;;;;6.47;2.30;;;;;;;;;;5024080;28;20046;-60
2021/05/27 08:02:09;;;;;;;2.58;1.77;;;;;;;;;;5009997;28;20354;-60
2021/05/27 08:04:39;;;;;;;5.28;1.65;;;;;;;;;;5008752;28;20089;-60
2021/05/27 08:07:07;;;;;;;3.80;1.67;;;;;;;;;;5008761;28;20054;-60
2021/05/27 08:09:36;;;;;;;4.80;1.80;;;;;;;;;;5009957;28;20068;-60
2021/05/27 08:12:05;;;;;;;7.20;1.80;;;;;;;;;;5009647;28;20050;-60
2021/05/27 08:14:34;;;;;;;5.38;2.47;;;;;;;;;;5010901;28;20117;-60
2021/05/27 08:17:03;;;;;;;4.10;1.60;;;;;;;;;;5010367;28;20045;-60
2021/05/27 08:19:32;;;;;;;2.08;1.48;;;;;;;;;;5009520;28;20412;-60
2021/05/27 08:22:00;;;;;;;3.05;1.40;;;;;;;;;;5009638;28;20093;-60
2021/05/27 08:24:29;;;;;;;3.97;1.42;;;;;;;;;;5010251;28;20049;-60
2021/05/27 08:26:57;;;;;;;2.65;1.40;;;;;;;;;;5010400;28;20050;-60
2021/05/27 08:29:26;;;;;;;2.65;1.30;;;;;;;;;;5008999;28;20127;-60
2021/05/27 08:31:56;;;;;;;3.95;1.52;;;;;;;;;;5019359;28;20075;-60
2021/05/27 08:34:24;;;;;;;1.83;1.23;;;;;;;;;;5008845;28;20054;-60
2021/05/27 08:36:53;;;;;;;5.90;1.50;;;;;;;;;;5028726;28;20051;-60
2021/05/27 08:39:21;;;;;;;2.42;1.38;;;;;;;;;;5111824;28;20059;-61
2021/05/27 08:41:50;;;;;;;2.20;1.60;;;;;;;;;;5022142;28;20050;-60
2021/05/27 08:44:18;;;;;;;2.90;1.30;;;;;;;;;;5055138;28;20558;-61
2021/05/27 08:46:48;;;;;;;1.58;1.10;;;;;;;;;;5111990;28;20070;-60
2021/05/27 08:49:18;;;;;;;1.95;1.13;;;;;;;;;;5112255;28;20094;-59
2021/05/27 08:51:46;;;;;;;1.70;1.38;;;;;;;;;;5033876;28;20402;-60
2021/05/27 08:54:15;;;;;;;1.90;1.15;;;;;;;;;;5008827;28;20053;-59
2021/05/27 08:56:43;;;;;;;2.67;1.25;;;;;;;;;;5008770;28;20045;-59
2021/05/27 08:59:12;;;;;;;1.73;1.23;;;;;;;;;;5008836;28;20505;-59
2021/05/27 09:01:55;;;;;;;1.60;1.10;;;;;;;;;;5008775;28;20049;-59
2021/05/27 09:04:24;;;;;;;4.07;1.15;;;;;;;;;;5008741;28;20057;-59
2021/05/27 09:06:53;;;;;;;1.85;1.30;;;;;;;;;;5041143;28;20442;-60
2021/05/27 09:09:21;;;;;;;2.78;1.42;;;;;;;;;;5009047;28;20057;-59
2021/05/27 09:11:50;;;;;;;2.40;1.25;;;;;;;;;;5009087;28;20128;-59
2021/05/27 09:14:19;;;;;;;2.15;1.30;;;;;;;;;;5010941;28;20064;-59
2021/05/27 09:16:57;;;;;;;3.67;1.38;;;;;;;;;;5005427;28;20405;-60
2021/05/27 09:19:27;;;;;;;1.83;1.30;;;;;;;;;;5008962;28;20513;-59
2021/05/27 09:21:57;;;;;;;3.13;1.30;;;;;;;;;;5008923;28;20056;-60
2021/05/27 09:24:43;;;;;;;1.50;1.20;;;;;;;;;;5009530;28;20049;-60
2021/05/27 09:27:12;;;;;;;2.83;1.40;;;;;;;;;;5009597;28;20053;-60
2021/05/27 09:29:47;;;;;;;2.35;1.27;;;;;;;;;;5008873;28;20092;-59
2021/05/27 09:32:15;;;;;;;2.55;1.35;;;;;;;;;;5008530;28;20061;-59
2021/05/27 09:34:46;;;;;;;4.82;1.73;;;;;;;;;;5008625;28;20045;-60
2021/05/27 09:37:26;;;;;;;4.10;2.08;;;;;;;;;;5007012;28;20146;-59
2021/05/27 09:39:55;;;;;;;6.45;1.67;;;;;;;;;;5007384;28;20111;-59
2021/05/27 09:42:24;;;;;;;5.05;1.73;;;;;;;;;;5008401;28;20214;-59
2021/05/27 09:44:53;;;;;;;7.38;1.60;;;;;;;;;;5007963;28;20050;-59
2021/05/27 09:47:30;;;;;;;1.40;1.17;;;;;;;;;;5017033;28;20050;-59
2021/05/27 09:50:00;;;;;;;5.05;1.50;;;;;;;;;;5014517;28;20054;-60
2021/05/27 09:52:38;;;;;;;4.07;1.85;;;;;;;;;;5008622;28;20102;-59
2021/05/27 09:55:10;;;;;;;4.50;1.60;;;;;;;;;;5008029;28;20054;-59
2021/05/27 09:57:38;;;;;;;1.90;1.10;;;;;;;;;;5007736;28;20049;-59
2021/05/27 10:00:24;;;;;;;4.18;1.40;;;;;;;;;;5009537;28;20045;-60
2021/05/27 10:02:53;;;;;;;2.85;1.40;;;;;;;;;;4999984;28;20061;-60
2021/05/27 10:05:23;;;;;;;2.70;1.70;;;;;;;;;;5012336;28;20046;-60
2021/05/27 10:07:52;;;;;;;3.70;1.30;;;;;;;;;;5006751;28;20041;-59
2021/05/27 10:10:42;;;;;;;2.10;1.27;;;;;;;;;;5007780;28;20085;-60
2021/05/27 10:13:10;;;;;;;5.13;1.70;;;;;;;;;;5008093;28;20462;-60
2021/05/27 10:15:41;;;;;;;4.78;1.42;;;;;;;;;;5006809;28;20081;-60
2021/05/27 10:18:10;;;;;;;7.18;1.73;;;;;;;;;;5007027;28;20625;-60
2021/05/27 10:20:40;;;;;;;4.65;1.75;;;;;;;;;;5007490;28;20141;-59
2021/05/27 10:23:08;;;;;;;3.00;1.75;;;;;;;;;;5009475;28;20089;-59
2021/05/27 10:25:36;;;;;;;3.05;1.15;;;;;;;;;;5009616;28;20050;-60
2021/05/27 10:28:07;;;;;;;2.55;1.38;;;;;;;;;;5009216;28;20107;-59
2021/05/27 10:30:37;;;;;;;3.15;1.58;;;;;;;;;;5009569;28;20408;-60
2021/05/27 10:33:07;;;;;;;4.18;1.30;;;;;;;;;;5009956;28;20766;-59
2021/05/27 10:35:55;;;;;;;1.60;1.15;;;;;;;;;;5007335;28;20538;-59
2021/05/27 10:38:47;;;;;;;2.55;1.20;;;;;;;;;;5007316;28;20054;-60
2021/05/27 10:41:16;;;;;;;2.08;1.00;;;;;;;;;;5010394;28;20554;-60
2021/05/27 10:44:03;;;;;;;1.73;1.00;;;;;;;;;;5007104;28;20125;-59
2021/05/27 10:46:33;;;;;;;2.47;1.20;;;;;;;;;;5006060;28;20107;-59
2021/05/27 10:49:03;;;;;;;3.10;0.98;;;;;;;;;;5010087;28;20050;-59
2021/05/27 10:51:34;;;;;;;1.80;1.15;;;;;;;;;;5016643;28;20049;-59
2021/05/27 10:54:03;;;;;;;1.17;1.00;;;;;;;;;;4990819;28;20376;-59
2021/05/27 10:56:41;;;;;;;3.25;1.08;;;;;;;;;;5003076;28;20149;-59
2021/05/27 10:59:10;;;;;;;3.35;1.05;;;;;;;;;;5012392;28;20056;-59
2021/05/27 11:01:55;;;;;;;1.77;1.02;;;;;;;;;;5012027;28;20046;-59
2021/05/27 11:04:24;;;;;;;1.95;0.90;;;;;;;;;;5013166;28;20072;-59
2021/05/27 11:07:07;;;;;;;1.05;0.75;;;;;;;;;;5012408;28;20054;-60
2021/05/27 11:09:38;;;;;;;1.50;0.90;;;;;;;;;;4990967;28;20054;-59
2021/05/27 11:12:27;;;;;;;1.63;1.00;;;;;;;;;;4991011;28;20082;-59
2021/05/27 11:15:11;;;;;;;2.20;0.75;;;;;;;;;;5012031;28;20505;-60
2021/05/27 11:17:40;;;;;;;1.55;0.80;;;;;;;;;;5009328;28;20045;-59
2021/05/27 11:20:12;;;;;;;4.68;1.20;;;;;;;;;;5011630;28;20050;-59
2021/05/27 11:22:50;;;;;;;1.48;0.80;;;;;;;;;;5010006;28;20508;-60
2021/05/27 11:25:34;;;;;;;1.85;1.10;;;;;;;;;;5010774;28;20512;-59
2021/05/27 11:28:36;;;;;;;1.55;0.75;;;;;;;;;;5011119;28;20058;-59
2021/05/27 11:31:06;;;;;;;2.92;1.20;;;;;;;;;;5011405;28;20557;-60
2021/05/27 11:33:39;;;;;;;2.40;1.13;;;;;;;;;;5011716;28;20042;-59
2021/05/27 11:36:09;;;;;;;3.03;1.40;;;;;;;;;;5010562;28;20053;-60
2021/05/27 11:38:39;;;;;;;4.45;1.33;;;;;;;;;;5008189;28;20077;-60
2021/05/27 11:41:09;;;;;;;5.68;1.50;;;;;;;;;;5009018;28;20106;-60
2021/05/27 11:43:38;;;;;;;2.45;1.00;;;;;;;;;;5008818;28;20046;-60
2021/05/27 11:46:08;;;;;;;1.02;0.77;;;;;;;;;;4989166;28;20144;-60
2021/05/27 11:48:39;;;;;;;2.00;1.10;;;;;;;;;;5003477;28;20045;-59
2021/05/27 11:51:10;;;;;;;5.75;1.10;;;;;;;;;;5022116;28;20060;-59
2021/05/27 11:53:40;;;;;;;2.45;1.02;;;;;;;;;;5051642;28;20044;-60
2021/05/27 11:56:09;;;;;;;2.15;1.33;;;;;;;;;;5091859;28;20047;-59
2021/05/27 11:58:39;;;;;;;2.58;1.20;;;;;;;;;;5084441;28;20479;-60
2021/05/27 12:01:18;;;;;;;2.00;1.27;;;;;;;;;;5010362;28;20419;-59
2021/05/27 12:04:14;;;;;;;1.50;1.00;;;;;;;;;;5008897;28;20507;-60
2021/05/27 12:06:50;;;;;;;1.55;1.00;;;;;;;;;;5019852;28;20069;-59
2021/05/27 12:09:22;;;;;;;1.83;0.60;;;;;;;;;;5008573;28;20504;-60
2021/05/27 12:11:52;;;;;;;1.55;0.90;;;;;;;;;;5008239;28;20132;-60
2021/05/27 12:14:21;;;;;;;2.00;0.80;;;;;;;;;;5007230;28;20054;-60
2021/05/27 12:16:53;;;;;;;1.17;0.77;;;;;;;;;;5011963;28;20050;-60
2021/05/27 12:19:22;;;;;;;2.35;1.00;;;;;;;;;;5010839;28;20053;-60
2021/05/27 12:21:52;;;;;;;1.52;0.70;;;;;;;;;;4997317;28;20299;-60
2021/05/27 12:24:24;;;;;;;1.73;0.80;;;;;;;;;;5042036;28;20044;-60
2021/05/27 12:26:54;;;;;;;3.22;1.00;;;;;;;;;;5044499;28;20511;-60
2021/05/27 12:29:22;;;;;;;2.33;0.80;;;;;;;;;;5005827;28;20501;-60
2021/05/27 12:31:52;;;;;;;1.92;0.80;;;;;;;;;;5008477;28;20050;-61
2021/05/27 12:34:21;;;;;;;2.33;0.90;;;;;;;;;;5006583;28;20049;-60
2021/05/27 12:36:53;;;;;;;2.55;0.75;;;;;;;;;;5006851;28;20057;-60
2021/05/27 12:39:35;;;;;;;2.85;1.40;;;;;;;;;;1002269;28;10022624;-60
2021/05/27 12:42:05;;;;;;;3.50;1.02;;;;;;;;;;4647265;28;10001380;-60
2021/05/27 12:44:38;;;;;;;1.83;0.80;;;;;;;;;;5008001;28;20096;-60
2021/05/27 12:47:17;;;;;;;3.35;0.93;;;;;;;;;;5006625;28;20107;-60
2021/05/27 12:49:46;;;;;;;1.58;0.98;;;;;;;;;;5001316;28;20063;-60
2021/05/27 12:52:29;;;;;;;4.85;1.00;;;;;;;;;;5008382;28;20046;-60
2021/05/27 12:55:00;;;;;;;3.53;0.82;;;;;;;;;;5007962;28;20054;-60
2021/05/27 12:57:29;;;;;;;2.42;1.33;;;;;;;;;;5007978;28;20119;-60
2021/05/27 12:59:58;;;;;;;2.05;1.25;;;;;;;;;;5007681;28;20046;-60
2021/05/27 13:02:27;;;;;;;3.20;1.20;;;;;;;;;;5007972;28;20057;-60
2021/05/27 13:04:55;;;;;;;3.58;0.90;;;;;;;;;;5008008;28;20116;-60
2021/05/27 13:07:23;;;;;;;1.25;0.90;;;;;;;;;;5007107;28;20053;-60
2021/05/27 13:09:53;;;;;;;2.72;1.02;;;;;;;;;;4999410;28;20133;-60
2021/05/27 13:12:22;;;;;;;2.63;0.80;;;;;;;;;;5007023;28;20058;-60
2021/05/27 13:15:07;;;;;;;1.80;1.00;;;;;;;;;;5008663;28;20408;-60
2021/05/27 13:17:36;;;;;;;2.58;0.90;;;;;;;;;;5056534;28;20134;-60
2021/05/27 13:20:05;;;;;;;2.60;0.70;;;;;;;;;;5109692;28;20048;-60
2021/05/27 13:22:34;;;;;;;2.30;0.90;;;;;;;;;;5055388;28;20045;-60
2021/05/27 13:25:04;;;;;;;3.72;0.75;;;;;;;;;;5012660;28;20079;-60
2021/05/27 13:27:40;;;;;;;1.75;0.80;;;;;;;;;;5014321;28;20084;-60
2021/05/27 13:30:15;;;;;;;3.25;1.17;;;;;;;;;;5024152;28;20054;-60
2021/05/27 13:32:44;;;;;;;1.58;0.73;;;;;;;;;;5007046;28;20136;-60
2021/05/27 13:35:16;;;;;;;2.63;0.70;;;;;;;;;;5013807;28;20556;-60
2021/05/27 13:37:45;;;;;;;3.30;0.82;;;;;;;;;;5031064;28;20043;-60
2021/05/27 13:40:14;;;;;;;0.90;0.73;;;;;;;;;;5023893;28;20054;-60
2021/05/27 13:42:43;;;;;;;2.22;1.00;;;;;;;;;;5004501;28;20201;-60
2021/05/27 13:45:13;;;;;;;1.40;0.70;;;;;;;;;;5001594;28;20485;-60
2021/05/27 13:47:41;;;;;;;2.05;0.73;;;;;;;;;;5010228;28;20046;-60
2021/05/27 13:50:10;;;;;;;1.80;0.82;;;;;;;;;;5004201;28;20050;-60
2021/05/27 13:52:40;;;;;;;2.05;0.57;;;;;;;;;;5004656;28;20128;-60
2021/05/27 13:55:08;;;;;;;2.13;0.80;;;;;;;;;;5001993;28;20477;-60
2021/05/27 13:57:37;;;;;;;2.45;0.90;;;;;;;;;;5011909;28;20421;-60
2021/05/27 14:00:07;;;;;;;1.50;0.77;;;;;;;;;;5012596;28;20057;-60
2021/05/27 14:02:37;;;;;;;1.73;0.73;;;;;;;;;;5015912;28;20121;-60
2021/05/27 14:05:06;;;;;;;0.70;0.70;;;;;;;;;;5006882;28;20390;-60
2021/05/27 14:07:35;;;;;;;6.10;1.15;;;;;;;;;;5006660;28;20085;-61
2021/05/27 14:10:05;;;;;;;3.55;1.00;;;;;;;;;;5003242;28;20488;-60
2021/05/27 14:12:34;;;;;;;2.58;0.80;;;;;;;;;;5004778;28;20073;-60
2021/05/27 14:15:03;;;;;;;2.10;0.80;;;;;;;;;;5003942;28;20046;-60
2021/05/27 14:17:31;;;;;;;1.52;0.90;;;;;;;;;;5001476;28;20137;-60
2021/05/27 14:20:00;;;;;;;1.42;0.80;;;;;;;;;;5023513;28;20727;-60
2021/05/27 14:22:28;;;;;;;3.15;0.80;;;;;;;;;;5004710;28;20505;-60
2021/05/27 14:24:57;;;;;;;1.95;0.80;;;;;;;;;;5011922;28;20057;-60
2021/05/27 14:27:25;;;;;;;1.13;0.90;;;;;;;;;;5008175;28;20437;-60
2021/05/27 14:29:53;;;;;;;1.83;0.98;;;;;;;;;;5004366;28;20130;-60
2021/05/27 14:32:21;;;;;;;1.60;0.65;;;;;;;;;;5006210;28;20477;-60
2021/05/27 14:34:49;;;;;;;8.43;1.17;;;;;;;;;;5011189;28;20393;-60
2021/05/27 14:37:19;;;;;;;1.67;0.68;;;;;;;;;;5011605;28;20049;-60
2021/05/27 14:39:48;;;;;;;2.33;0.80;;;;;;;;;;5003988;28;20050;-60
2021/05/27 14:42:16;;;;;;;4.05;1.00;;;;;;;;;;5006446;28;20042;-60
2021/05/27 14:44:44;;;;;;;2.55;1.33;;;;;;;;;;5005264;28;20552;-60
2021/05/27 14:47:12;;;;;;;3.55;0.98;;;;;;;;;;5005463;28;20054;-60
2021/05/27 14:49:40;;;;;;;1.15;0.70;;;;;;;;;;5006563;28;20537;-60
2021/05/27 14:52:08;;;;;;;3.85;0.90;;;;;;;;;;5005619;28;20057;-60
2021/05/27 14:54:37;;;;;;;1.35;1.00;;;;;;;;;;5006464;28;20084;-60
2021/05/27 14:57:06;;;;;;;2.63;0.90;;;;;;;;;;5004636;28;20046;-60
2021/05/27 14:59:41;;;;;;;1.98;1.00;;;;;;;;;;5002235;28;20046;-60
2021/05/27 15:02:10;;;;;;;2.65;0.85;;;;;;;;;;5023126;28;20088;-60
2021/05/27 15:04:38;;;;;;;1.75;0.73;;;;;;;;;;5010784;28;20616;-60
2021/05/27 15:07:06;;;;;;;1.67;0.80;;;;;;;;;;5004825;28;20050;-60